Time;durP1;ratioP1;P1;durP2;ratioP2;P2;SDS_P1;SDS_P2;PMS_P1;PMS_P2;Temp;Humidity;BMP_temperature;BMP_pressure;BME280_temperature;BME280_humidity;BME280_pressure;Samples;Min_cycle;Max_cycle;Signal;HPM_P1;HPM_P2
2021/04/02 00:01:30;;;;;;;34.70;22.07;;;;;;;16.50;53.61;96522.41;5115441;27;20553;-61
2021/04/02 00:03:55;;;;;;;35.47;23.53;;;;;;;16.45;53.82;96525.78;5134830;27;20271;-60
2021/04/02 00:06:21;;;;;;;37.47;25.53;;;;;;;16.18;54.72;96524.31;5134489;27;20179;-60
2021/04/02 00:08:46;;;;;;;34.73;24.27;;;;;;;16.29;54.60;96518.81;5114384;28;20193;-60
2021/04/02 00:11:12;;;;;;;36.33;26.83;;;;;;;16.42;54.97;96521.00;5115140;28;20173;-60
2021/04/02 00:13:40;;;;;;;41.97;27.47;;;;;;;16.17;55.23;96525.38;5115200;28;20173;-59
2021/04/02 00:16:07;;;;;;;35.10;26.27;;;;;;;16.33;55.09;96524.41;5122097;27;20410;-60
2021/04/02 00:18:33;;;;;;;40.17;26.20;;;;;;;16.27;55.36;96520.91;5135054;27;20974;-61
2021/04/02 00:21:01;;;;;;;37.70;27.50;;;;;;;16.29;55.32;96523.31;5135454;27;20406;-60
2021/04/02 00:23:28;;;;;;;38.07;27.53;;;;;;;16.29;55.35;96528.59;5114046;27;20761;-60
2021/04/02 00:25:53;;;;;;;34.33;27.60;;;;;;;16.29;55.22;96516.16;5114855;28;20875;-60
2021/04/02 00:28:19;;;;;;;39.17;28.50;;;;;;;16.24;55.59;96516.13;5114311;28;20429;-60
2021/04/02 00:30:57;;;;;;;41.60;27.60;;;;;;;16.15;55.85;96512.38;5114797;27;20197;-60
2021/04/02 00:33:27;;;;;;;35.67;27.90;;;;;;;15.98;56.39;96506.44;5114676;28;20184;-59
2021/04/02 00:35:53;;;;;;;42.40;28.97;;;;;;;16.03;56.48;96508.31;5134321;27;20505;-61
2021/04/02 00:38:19;;;;;;;33.17;25.77;;;;;;;16.21;56.02;96513.19;5114099;28;20530;-60
2021/04/02 00:40:50;;;;;;;36.10;29.07;;;;;;;16.18;56.13;96514.50;5114700;28;20407;-60
2021/04/02 00:43:17;;;;;;;40.27;28.70;;;;;;;16.10;56.37;96507.06;5114642;28;20406;-60
2021/04/02 00:45:42;;;;;;;37.63;27.53;;;;;;;16.11;56.49;96507.81;5114835;27;20441;-61
2021/04/02 00:48:08;;;;;;;37.07;28.67;;;;;;;16.14;56.55;96502.03;5113938;28;20407;-60
2021/04/02 00:50:45;;;;;;;42.33;30.10;;;;;;;16.09;56.28;96500.13;5121959;27;20531;-61
2021/04/02 00:53:12;;;;;;;38.83;27.43;;;;;;;16.07;56.42;96499.59;5114538;28;20176;-59
2021/04/02 00:55:39;;;;;;;38.60;28.97;;;;;;;16.05;56.83;96493.75;5114406;28;20398;-60
2021/04/02 00:58:08;;;;;;;35.83;27.30;;;;;;;16.00;56.95;96496.38;5113821;28;20458;-59
2021/04/02 01:00:34;;;;;;;40.57;26.47;;;;;;;16.00;56.83;96496.38;5114221;28;20391;-59
2021/04/02 01:02:59;;;;;;;38.80;28.80;;;;;;;15.86;56.91;96505.03;5114036;28;20806;-61
2021/04/02 01:05:29;;;;;;;39.77;28.57;;;;;;;15.76;57.51;96504.97;5114953;27;20162;-60
2021/04/02 01:07:58;;;;;;;39.30;29.47;;;;;;;15.79;57.89;96507.91;5134184;27;20640;-59
2021/04/02 01:10:25;;;;;;;36.53;28.00;;;;;;;15.81;57.83;96511.09;5132926;27;20414;-60
2021/04/02 01:13:16;;;;;;;41.70;28.70;;;;;;;15.72;57.99;96509.97;5125568;27;20416;-61
2021/04/02 01:15:56;;;;;;;41.07;30.20;;;;;;;15.70;58.41;96520.03;5106357;28;20419;-59
2021/04/02 01:18:33;;;;;;;40.10;27.70;;;;;;;15.64;58.27;96514.91;5128646;27;20461;-61
2021/04/02 01:21:05;;;;;;;37.37;29.10;;;;;;;15.53;58.75;96500.81;5134664;27;20398;-60
2021/04/02 01:23:41;;;;;;;38.23;26.10;;;;;;;15.37;58.62;96501.69;5134710;27;20409;-59
2021/04/02 01:26:40;;;;;;;31.80;24.30;;;;;;;15.41;58.72;96501.00;5113819;27;20418;-59
2021/04/02 01:29:25;;;;;;;32.80;25.57;;;;;;;15.45;58.71;96495.97;5113300;28;20418;-60
2021/04/02 01:31:54;;;;;;;36.17;26.77;;;;;;;15.29;59.46;96508.25;5113834;28;20634;-59
2021/04/02 01:34:33;;;;;;;38.60;26.90;;;;;;;15.34;59.40;96499.56;5113819;28;20435;-59
2021/04/02 01:37:08;;;;;;;38.27;26.00;;;;;;;15.37;59.46;96499.84;5127192;28;20450;-64
2021/04/02 01:39:42;;;;;;;34.50;26.00;;;;;;;15.48;58.94;96503.41;5134235;27;20417;-59
2021/04/02 01:42:12;;;;;;;37.43;26.57;;;;;;;15.39;58.89;96500.41;5117428;27;20422;-59
2021/04/02 01:44:40;;;;;;;39.33;28.90;;;;;;;15.30;59.94;96509.84;5114024;28;20445;-60
2021/04/02 01:47:08;;;;;;;39.03;28.67;;;;;;;15.42;59.70;96507.06;5113172;28;20411;-61
2021/04/02 01:49:37;;;;;;;35.90;27.70;;;;;;;15.28;60.18;96511.16;5113552;28;20434;-60
2021/04/02 01:52:06;;;;;;;36.20;27.70;;;;;;;15.12;61.11;96512.88;5129784;28;20430;-59
2021/04/02 01:54:33;;;;;;;38.73;27.03;;;;;;;14.76;62.25;96512.75;5134303;27;20402;-59
2021/04/02 01:57:00;;;;;;;42.67;29.70;;;;;;;14.97;61.38;96512.69;5115341;27;20449;-63
2021/04/02 01:59:27;;;;;;;38.27;28.77;;;;;;;14.97;61.22;96509.25;5132373;28;20438;-59
2021/04/02 02:01:54;;;;;;;39.60;27.53;;;;;;;15.12;60.62;96515.50;5134167;27;20410;-59
2021/04/02 02:04:22;;;;;;;38.50;27.40;;;;;;;14.99;61.29;96507.16;5134140;27;20403;-60
2021/04/02 02:06:50;;;;;;;37.40;27.17;;;;;;;14.97;61.25;96510.06;5132252;27;20452;-61
2021/04/02 02:09:20;;;;;;;32.70;25.70;;;;;;;14.88;61.64;96514.19;5126927;27;20447;-60
2021/04/02 02:11:49;;;;;;;36.63;26.87;;;;;;;14.96;61.56;96521.69;5129082;28;20760;-60
2021/04/02 02:14:17;;;;;;;32.70;26.90;;;;;;;14.90;61.48;96527.16;5134040;27;20459;-59
2021/04/02 02:16:47;;;;;;;38.60;27.77;;;;;;;14.82;61.93;96523.13;5133939;27;20487;-60
2021/04/02 02:19:15;;;;;;;37.67;26.40;;;;;;;14.58;62.92;96523.63;5132666;27;20442;-59
2021/04/02 02:21:43;;;;;;;31.63;25.57;;;;;;;14.55;63.02;96526.78;5134327;27;20402;-60
2021/04/02 02:24:10;;;;;;;35.30;24.70;;;;;;;14.56;63.23;96526.53;5133003;27;20418;-59
2021/04/02 02:26:37;;;;;;;31.50;25.00;;;;;;;14.62;62.66;96524.75;5132210;27;20414;-59
2021/04/02 02:29:02;;;;;;;31.80;23.93;;;;;;;14.46;62.51;96533.53;5133435;27;20471;-59
2021/04/02 02:31:28;;;;;;;32.50;25.67;;;;;;;14.30;63.86;96525.41;5121006;27;20426;-59
2021/04/02 02:33:53;;;;;;;30.73;23.40;;;;;;;14.18;63.98;96526.53;5116999;28;20205;-60
2021/04/02 02:36:19;;;;;;;30.47;23.33;;;;;;;14.29;63.35;96523.78;5122013;27;20520;-59
2021/04/02 02:38:45;;;;;;;29.70;22.17;;;;;;;14.37;62.66;96522.56;5137016;27;20188;-60
2021/04/02 02:41:10;;;;;;;30.63;23.00;;;;;;;14.15;63.98;96527.03;5137615;27;20216;-59
2021/04/02 02:43:35;;;;;;;27.67;20.20;;;;;;;14.32;63.02;96525.16;5137171;27;20169;-59
2021/04/02 02:46:01;;;;;;;26.93;20.77;;;;;;;14.22;63.42;96517.84;5135768;27;20176;-59
2021/04/02 02:48:26;;;;;;;27.20;20.37;;;;;;;14.16;62.99;96524.13;5134175;27;20215;-61
2021/04/02 02:50:54;;;;;;;29.27;21.07;;;;;;;14.19;62.65;96525.47;5116829;28;20177;-59
2021/04/02 02:53:24;;;;;;;25.93;18.97;;;;;;;14.26;62.76;96526.94;5116910;28;20713;-60
2021/04/02 02:55:51;;;;;;;23.73;19.70;;;;;;;14.19;63.16;96525.47;5116543;28;20456;-59
2021/04/02 02:58:17;;;;;;;26.40;19.90;;;;;;;14.12;63.27;96524.84;5118906;27;20834;-60
2021/04/02 03:00:44;;;;;;;25.93;19.67;;;;;;;14.10;62.78;96527.75;5137230;27;20399;-60
2021/04/02 03:03:15;;;;;;;24.07;17.90;;;;;;;14.16;63.12;96531.25;5135271;27;20874;-59
2021/04/02 03:05:51;;;;;;;24.90;18.27;;;;;;;14.08;62.92;96535.09;5132420;27;20418;-60
2021/04/02 03:08:20;;;;;;;23.93;17.80;;;;;;;13.97;63.11;96528.06;5117714;27;20536;-60
2021/04/02 03:10:46;;;;;;;23.30;17.93;;;;;;;13.93;62.97;96521.66;5137056;27;20486;-60
2021/04/02 03:13:16;;;;;;;25.83;19.20;;;;;;;14.05;63.10;96521.59;5136737;27;20406;-60
2021/04/02 03:15:42;;;;;;;22.23;17.63;;;;;;;13.86;64.17;96523.69;5136788;27;20406;-60
2021/04/02 03:18:11;;;;;;;25.03;18.07;;;;;;;13.73;64.31;96523.22;5136356;27;20476;-59
2021/04/02 03:20:38;;;;;;;27.33;17.17;;;;;;;13.76;63.69;96525.38;5130273;27;20919;-60
2021/04/02 03:23:06;;;;;;;25.20;17.00;;;;;;;13.82;63.30;96525.22;5117260;27;20469;-60
2021/04/02 03:25:34;;;;;;;23.27;15.47;;;;;;;13.82;62.52;96516.50;5116148;28;20792;-59
2021/04/02 03:28:00;;;;;;;18.90;13.97;;;;;;;13.79;62.26;96527.53;5119843;27;20410;-59
2021/04/02 03:30:28;;;;;;;16.20;13.10;;;;;;;13.74;61.61;96516.91;5136415;27;20405;-59
2021/04/02 03:33:00;;;;;;;21.77;14.60;;;;;;;13.61;62.27;96522.50;5134352;27;20418;-59
2021/04/02 03:35:26;;;;;;;21.83;14.60;;;;;;;13.43;62.45;96520.91;5136378;27;20421;-59
2021/04/02 03:37:53;;;;;;;17.80;14.20;;;;;;;13.14;64.13;96521.97;5135929;27;20537;-59
2021/04/02 03:40:21;;;;;;;21.20;16.03;;;;;;;13.28;63.51;96528.56;5136250;27;20407;-60
2021/04/02 03:42:51;;;;;;;21.83;15.47;;;;;;;13.02;65.26;96527.31;5130598;27;20447;-60
2021/04/02 03:45:17;;;;;;;17.00;14.30;;;;;;;12.89;65.05;96532.03;5115999;28;20472;-59
2021/04/02 03:47:44;;;;;;;18.23;12.37;;;;;;;12.86;64.01;96527.25;5115056;28;20473;-60
2021/04/02 03:50:13;;;;;;;17.10;12.37;;;;;;;12.70;63.93;96528.00;5115741;27;20205;-59
2021/04/02 03:52:56;;;;;;;13.27;10.80;;;;;;;12.55;63.68;96527.69;5115664;28;20404;-60
2021/04/02 03:55:23;;;;;;;12.80;10.03;;;;;;;12.67;62.25;96526.63;5115662;28;20406;-59
2021/04/02 03:57:50;;;;;;;12.37;10.03;;;;;;;12.62;62.22;96528.34;5121698;27;20457;-59
2021/04/02 04:00:18;;;;;;;11.40;9.07;;;;;;;12.63;62.01;96522.84;5124425;27;20431;-60
2021/04/02 04:02:46;;;;;;;12.90;9.23;;;;;;;12.61;60.67;96522.28;5126256;27;20418;-59
2021/04/02 04:05:14;;;;;;;10.97;7.80;;;;;;;12.48;59.88;96533.09;5135794;27;20808;-60
2021/04/02 04:07:43;;;;;;;9.77;7.93;;;;;;;12.37;59.67;96526.81;5135346;27;20391;-59
2021/04/02 04:10:14;;;;;;;10.20;7.40;;;;;;;12.22;59.89;96531.78;5135457;27;20798;-59
2021/04/02 04:12:42;;;;;;;10.33;7.20;;;;;;;12.43;57.94;96527.72;5135984;27;20426;-59
2021/04/02 04:15:11;;;;;;;7.83;7.03;;;;;;;12.41;57.51;96524.50;5124553;27;20480;-59
2021/04/02 04:17:39;;;;;;;8.93;6.70;;;;;;;12.15;58.74;96525.03;5114580;28;20447;-59
2021/04/02 04:20:06;;;;;;;7.23;5.10;;;;;;;12.00;57.60;96525.50;5114815;28;20427;-59
2021/04/02 04:22:32;;;;;;;7.10;5.83;;;;;;;12.05;57.48;96522.16;5114999;28;20430;-59
2021/04/02 04:24:59;;;;;;;7.60;5.10;;;;;;;11.86;56.63;96534.66;5117590;27;20471;-58
2021/04/02 04:27:26;;;;;;;8.83;5.07;;;;;;;11.88;56.95;96526.53;5123794;27;20419;-59
2021/04/02 04:29:54;;;;;;;9.93;4.57;;;;;;;11.82;56.29;96528.25;5126668;27;20825;-59
2021/04/02 04:32:20;;;;;;;5.57;5.07;;;;;;;11.74;55.91;96522.53;5135354;27;20410;-59
2021/04/02 04:34:48;;;;;;;6.07;4.30;;;;;;;11.72;54.90;96519.31;5135139;27;20414;-59
2021/04/02 04:37:16;;;;;;;6.50;4.07;;;;;;;11.51;54.79;96523.25;5134422;27;20508;-60
2021/04/02 04:39:45;;;;;;;4.90;4.37;;;;;;;11.32;54.97;96522.53;5134787;27;20473;-59
2021/04/02 04:42:16;;;;;;;4.77;3.40;;;;;;;11.43;54.35;96520.16;5135165;27;20410;-59
2021/04/02 04:44:46;;;;;;;4.30;3.63;;;;;;;11.27;55.44;96524.25;5131869;27;20896;-59
2021/04/02 04:47:12;;;;;;;5.47;3.53;;;;;;;11.35;54.96;96526.56;5134463;27;20421;-60
2021/04/02 04:49:37;;;;;;;3.67;3.37;;;;;;;11.21;54.75;96531.19;5134851;27;20429;-60
2021/04/02 04:52:06;;;;;;;6.07;3.70;;;;;;;11.31;54.41;96528.03;5129326;27;20173;-59
2021/04/02 04:54:33;;;;;;;6.40;3.57;;;;;;;11.03;53.99;96531.28;5118307;27;20180;-59
2021/04/02 04:56:59;;;;;;;3.20;2.87;;;;;;;11.10;53.50;96525.94;5134304;27;20506;-62
2021/04/02 04:59:28;;;;;;;4.00;2.63;;;;;;;10.91;53.28;96524.38;5134685;27;20830;-59
2021/04/02 05:01:55;;;;;;;3.43;2.60;;;;;;;10.91;54.01;96521.75;5132861;27;20179;-59
2021/04/02 05:04:23;;;;;;;4.10;2.83;;;;;;;11.02;52.91;96528.88;5134566;27;20765;-59
2021/04/02 05:06:54;;;;;;;2.77;2.53;;;;;;;11.11;52.70;96527.53;5130361;27;20415;-60
2021/04/02 05:09:21;;;;;;;4.00;2.23;;;;;;;11.10;52.68;96529.38;5113933;28;20427;-59
2021/04/02 05:11:48;;;;;;;4.60;2.57;;;;;;;11.09;52.44;96534.84;5114326;27;20426;-59
2021/04/02 05:14:16;;;;;;;5.33;2.70;;;;;;;10.99;52.74;96534.59;5113859;28;20449;-59
2021/04/02 05:16:42;;;;;;;2.87;2.67;;;;;;;10.95;53.03;96531.59;5114251;28;20459;-60
2021/04/02 05:19:10;;;;;;;3.00;2.70;;;;;;;11.05;52.35;96537.09;5113610;28;20436;-59
2021/04/02 05:21:39;;;;;;;4.17;2.97;;;;;;;11.07;52.32;96547.44;5116179;27;20438;-60
2021/04/02 05:24:05;;;;;;;6.57;2.67;;;;;;;10.89;53.48;96548.25;5113876;28;20415;-59
2021/04/02 05:26:30;;;;;;;2.67;2.43;;;;;;;10.93;53.23;96556.50;5114753;28;20471;-60
2021/04/02 05:28:56;;;;;;;2.40;2.20;;;;;;;10.89;53.08;96556.13;5122453;27;20196;-60
2021/04/02 05:31:21;;;;;;;3.00;2.70;;;;;;;11.01;52.86;96549.13;5134458;27;20266;-59
2021/04/02 05:33:46;;;;;;;3.40;2.70;;;;;;;11.04;52.64;96556.56;5134246;28;20173;-59
2021/04/02 05:36:12;;;;;;;3.43;2.80;;;;;;;10.89;53.49;96563.22;5134454;27;20176;-59
2021/04/02 05:38:37;;;;;;;3.23;2.93;;;;;;;10.78;54.14;96561.38;5133853;27;20237;-59
2021/04/02 05:41:08;;;;;;;6.10;2.57;;;;;;;10.99;53.47;96561.69;5130936;27;20179;-60
2021/04/02 05:43:45;;;;;;;3.40;3.10;;;;;;;11.06;53.95;96564.22;5119794;28;20196;-59
2021/04/02 05:46:12;;;;;;;3.13;2.90;;;;;;;11.07;53.71;96561.34;5131187;27;20417;-60
2021/04/02 05:48:40;;;;;;;6.93;4.23;;;;;;;10.87;54.17;96566.06;5113039;28;20446;-59
2021/04/02 05:51:06;;;;;;;5.73;2.70;;;;;;;10.83;54.85;96569.38;5113610;28;20406;-60
2021/04/02 05:53:33;;;;;;;4.00;3.63;;;;;;;10.94;54.61;96560.75;5115058;28;20474;-59
2021/04/02 05:56:02;;;;;;;4.47;3.70;;;;;;;10.97;54.74;96570.81;5113981;28;20187;-59
2021/04/02 05:58:28;;;;;;;5.40;3.50;;;;;;;10.88;55.35;96572.94;5112911;28;20487;-60
2021/04/02 06:00:53;;;;;;;4.73;3.83;;;;;;;10.92;54.99;96571.50;5114614;28;20421;-60
2021/04/02 06:03:20;;;;;;;4.43;3.30;;;;;;;10.87;55.95;96578.44;5113663;28;20647;-59
2021/04/02 06:05:47;;;;;;;4.70;4.30;;;;;;;10.91;56.28;96571.69;5116867;27;20636;-59
2021/04/02 06:08:13;;;;;;;4.50;3.37;;;;;;;11.10;56.32;96568.00;5136770;27;20585;-60
2021/04/02 06:10:39;;;;;;;10.50;4.20;;;;;;;11.16;55.24;96570.53;5120735;27;20918;-59
2021/04/02 06:13:04;;;;;;;4.03;3.60;;;;;;;11.09;55.38;96564.56;5117465;28;20399;-60
2021/04/02 06:15:32;;;;;;;8.17;4.30;;;;;;;11.14;56.36;96561.28;5117641;28;20176;-59
2021/04/02 06:18:03;;;;;;;5.33;3.97;;;;;;;11.20;55.63;96566.44;5116817;28;20567;-59
2021/04/02 06:20:49;;;;;;;7.83;4.07;;;;;;;11.17;55.82;96566.91;5135754;27;20940;-60
2021/04/02 06:23:17;;;;;;;6.53;4.00;;;;;;;11.12;56.71;96558.84;5137865;27;20477;-59
2021/04/02 06:25:56;;;;;;;5.73;4.73;;;;;;;11.33;56.99;96565.44;5118266;27;20509;-59
2021/04/02 06:28:24;;;;;;;6.57;4.47;;;;;;;11.20;57.40;96560.38;5115262;28;20444;-59
2021/04/02 06:31:01;;;;;;;6.03;4.40;;;;;;;11.23;56.39;96559.94;5116031;28;20498;-59
2021/04/02 06:33:34;;;;;;;5.80;4.40;;;;;;;11.28;56.34;96565.31;5115693;28;20415;-59
2021/04/02 06:36:01;;;;;;;4.97;4.10;;;;;;;11.48;56.38;96560.56;5117248;28;20431;-60
2021/04/02 06:38:33;;;;;;;4.50;4.10;;;;;;;11.61;55.49;96562.19;5117896;27;20465;-60
2021/04/02 06:41:03;;;;;;;5.67;4.23;;;;;;;11.58;55.56;96560.81;5137095;27;20426;-60
2021/04/02 06:43:41;;;;;;;5.30;4.80;;;;;;;11.52;56.52;96571.44;5134771;27;20440;-59
2021/04/02 06:46:09;;;;;;;5.03;4.53;;;;;;;11.66;55.79;96575.50;5117092;28;20409;-59
2021/04/02 06:48:35;;;;;;;6.47;4.57;;;;;;;11.60;56.06;96574.53;5116260;28;20519;-59
2021/04/02 06:51:00;;;;;;;7.73;5.30;;;;;;;11.60;55.99;96579.00;5116944;28;20880;-59
2021/04/02 06:53:26;;;;;;;9.33;5.13;;;;;;;11.45;56.72;96584.69;5126358;27;20436;-59
2021/04/02 06:55:52;;;;;;;5.63;4.57;;;;;;;11.47;55.79;96577.38;5137101;27;20191;-59
2021/04/02 06:58:22;;;;;;;7.17;4.90;;;;;;;11.43;54.98;96575.41;5135092;27;20961;-59
2021/04/02 07:00:50;;;;;;;5.80;4.20;;;;;;;11.38;55.83;96579.53;5135793;27;20757;-59
2021/04/02 07:03:17;;;;;;;6.50;5.23;;;;;;;11.58;55.41;96581.84;5137355;27;20458;-60
2021/04/02 07:05:43;;;;;;;6.70;5.20;;;;;;;11.60;55.24;96590.31;5137094;27;20405;-59
2021/04/02 07:08:12;;;;;;;6.63;4.60;;;;;;;11.76;54.70;96587.06;5119623;27;20588;-60
2021/04/02 07:10:39;;;;;;;5.70;4.67;;;;;;;11.52;55.00;96589.84;5116194;28;20910;-60
2021/04/02 07:13:06;;;;;;;5.90;4.50;;;;;;;11.68;54.99;96583.97;5119529;27;20424;-59
2021/04/02 07:15:34;;;;;;;5.90;5.00;;;;;;;11.54;55.71;96585.19;5125708;27;20429;-60
2021/04/02 07:18:00;;;;;;;5.87;4.47;;;;;;;11.77;54.69;96587.88;5115473;28;20458;-59
2021/04/02 07:20:26;;;;;;;5.20;4.70;;;;;;;11.31;55.32;96594.59;5116255;28;20898;-60
2021/04/02 07:22:53;;;;;;;5.87;4.90;;;;;;;11.24;56.81;96593.91;5116302;28;20944;-59
2021/04/02 07:25:18;;;;;;;7.03;4.60;;;;;;;11.38;56.33;96589.25;5116144;28;20460;-59
2021/04/02 07:27:44;;;;;;;5.53;5.00;;;;;;;11.58;55.47;96605.53;5115944;27;20494;-59
2021/04/02 07:30:12;;;;;;;6.50;4.87;;;;;;;11.58;55.70;96591.59;5115850;28;20423;-59
2021/04/02 07:32:40;;;;;;;6.53;5.90;;;;;;;11.57;55.84;96593.41;5115827;28;20526;-60
2021/04/02 07:35:07;;;;;;;6.37;4.90;;;;;;;11.30;56.46;96595.63;5116059;27;20423;-59
2021/04/02 07:37:39;;;;;;;5.70;5.10;;;;;;;11.51;56.21;96598.75;5115379;28;20443;-60
2021/04/02 07:40:10;;;;;;;8.97;6.37;;;;;;;11.47;56.55;96595.78;5116654;27;20442;-59
2021/04/02 07:42:36;;;;;;;7.07;5.83;;;;;;;11.61;55.94;96599.03;5118781;27;20443;-60
2021/04/02 07:45:01;;;;;;;7.17;5.50;;;;;;;11.54;56.93;96593.06;5136254;27;20402;-60
2021/04/02 07:47:28;;;;;;;7.83;5.70;;;;;;;11.75;56.41;96598.63;5123734;27;20437;-60
2021/04/02 07:49:58;;;;;;;7.53;6.23;;;;;;;11.84;55.18;96599.91;5116376;27;20189;-60
2021/04/02 07:52:43;;;;;;;6.37;5.80;;;;;;;11.35;56.13;96602.84;5115652;28;20406;-60
2021/04/02 07:55:18;;;;;;;8.87;5.60;;;;;;;11.66;57.09;96605.25;5119225;27;20478;-59
2021/04/02 07:58:02;;;;;;;6.90;6.30;;;;;;;11.86;56.61;96608.38;5125703;27;20468;-59
2021/04/02 08:00:31;;;;;;;7.03;6.03;;;;;;;12.07;56.14;96604.38;5135717;27;20406;-60
2021/04/02 08:03:05;;;;;;;7.13;6.40;;;;;;;12.19;56.19;96602.56;5135008;27;20905;-60
2021/04/02 08:05:31;;;;;;;6.50;5.90;;;;;;;11.84;56.38;96605.16;5135779;27;20410;-60
2021/04/02 08:07:57;;;;;;;8.97;6.60;;;;;;;12.09;55.89;96605.75;5135406;27;20820;-60
2021/04/02 08:10:23;;;;;;;10.70;6.93;;;;;;;11.86;56.05;96603.13;5135918;27;20176;-60
2021/04/02 08:12:48;;;;;;;6.60;6.00;;;;;;;11.98;55.97;96609.19;5135579;27;20172;-61
2021/04/02 08:15:16;;;;;;;8.77;6.90;;;;;;;12.15;55.56;96604.84;5135395;27;20414;-60
2021/04/02 08:17:47;;;;;;;8.30;6.77;;;;;;;11.70;57.21;96611.69;5132663;27;20296;-61
2021/04/02 08:20:15;;;;;;;8.17;7.37;;;;;;;11.96;56.99;96608.59;5135335;27;20406;-61
2021/04/02 08:22:42;;;;;;;8.57;7.60;;;;;;;12.24;56.08;96606.13;5127374;27;20476;-61
2021/04/02 08:25:13;;;;;;;7.43;6.83;;;;;;;12.20;55.75;96610.22;5113693;28;20407;-60
2021/04/02 08:27:44;;;;;;;9.13;7.40;;;;;;;12.56;54.19;96603.09;5113901;28;20835;-61
2021/04/02 08:30:13;;;;;;;8.23;7.23;;;;;;;12.48;54.35;96606.91;5114595;28;20416;-60
2021/04/02 08:32:44;;;;;;;8.03;7.23;;;;;;;12.47;54.74;96604.47;5115067;28;20401;-60
2021/04/02 08:35:12;;;;;;;8.73;7.83;;;;;;;12.07;55.73;96607.00;5120680;27;20774;-60
2021/04/02 08:37:38;;;;;;;7.90;6.80;;;;;;;12.18;55.06;96604.38;5133028;27;20957;-60
2021/04/02 08:40:08;;;;;;;8.83;8.03;;;;;;;12.50;55.42;96604.03;5135049;27;20422;-60
2021/04/02 08:42:34;;;;;;;11.53;7.50;;;;;;;12.38;55.75;96599.56;5133816;27;20418;-60
2021/04/02 08:45:09;;;;;;;8.50;7.70;;;;;;;12.59;54.52;96611.31;5135043;27;20924;-60
2021/04/02 08:47:39;;;;;;;8.33;7.53;;;;;;;12.58;55.76;96608.94;5133501;27;20208;-61
2021/04/02 08:50:06;;;;;;;9.90;8.63;;;;;;;12.68;54.74;96601.25;5131521;27;20438;-60
2021/04/02 08:52:32;;;;;;;9.07;8.20;;;;;;;12.88;54.64;96597.16;5114574;28;20404;-61
2021/04/02 08:55:04;;;;;;;9.97;8.90;;;;;;;12.88;55.62;96601.66;5114750;28;20752;-61
2021/04/02 08:57:31;;;;;;;10.10;8.60;;;;;;;12.47;55.37;96601.84;5122633;27;20732;-60
2021/04/02 08:59:59;;;;;;;8.47;7.63;;;;;;;12.80;54.76;96599.38;5114174;28;20827;-60
2021/04/02 09:02:30;;;;;;;9.17;8.27;;;;;;;12.95;54.89;96605.78;5123585;27;20525;-60
2021/04/02 09:04:56;;;;;;;10.83;8.30;;;;;;;13.03;55.21;96600.13;5133653;27;20434;-61
2021/04/02 09:07:22;;;;;;;8.20;7.40;;;;;;;13.18;54.14;96589.88;5134437;27;20394;-60
2021/04/02 09:09:48;;;;;;;8.97;8.07;;;;;;;13.02;54.58;96601.19;5133729;27;20470;-60
2021/04/02 09:12:16;;;;;;;9.47;8.67;;;;;;;13.29;53.30;96596.94;5134591;27;20210;-60
2021/04/02 09:14:45;;;;;;;10.87;9.10;;;;;;;13.35;54.04;96595.22;5132769;27;20991;-61
2021/04/02 09:17:13;;;;;;;10.00;8.73;;;;;;;13.69;53.14;96594.22;5132268;27;20458;-62
2021/04/02 09:19:39;;;;;;;11.20;8.87;;;;;;;13.32;53.46;96590.38;5134554;27;20894;-61
2021/04/02 09:22:06;;;;;;;9.93;8.93;;;;;;;13.52;53.18;96595.22;5125485;27;20979;-61
2021/04/02 09:24:34;;;;;;;9.90;9.03;;;;;;;13.37;54.07;96591.28;5112666;28;20903;-60
2021/04/02 09:27:07;;;;;;;9.63;8.63;;;;;;;13.52;52.74;96589.94;5113423;28;20475;-61
2021/04/02 09:29:33;;;;;;;10.50;9.50;;;;;;;13.74;52.71;96596.13;5115611;28;20855;-60
2021/04/02 09:31:58;;;;;;;9.53;8.63;;;;;;;13.61;53.61;96594.59;5132090;27;20406;-61
2021/04/02 09:34:24;;;;;;;11.33;9.83;;;;;;;13.92;52.89;96598.53;5113882;28;20222;-61
2021/04/02 09:36:49;;;;;;;10.30;9.27;;;;;;;13.79;53.32;96604.94;5113333;28;20279;-64
2021/04/02 09:39:24;;;;;;;9.60;8.80;;;;;;;13.99;52.36;96597.34;5116455;27;20273;-59
2021/04/02 09:42:13;;;;;;;10.53;9.50;;;;;;;14.10;53.40;96601.72;5126247;27;20172;-59
2021/04/02 09:44:39;;;;;;;12.50;10.27;;;;;;;14.19;52.55;96594.19;5118021;28;20418;-58
2021/04/02 09:47:09;;;;;;;11.27;10.20;;;;;;;13.73;54.29;96602.47;5117652;28;20411;-60
2021/04/02 09:49:37;;;;;;;10.00;9.07;;;;;;;14.07;55.58;96602.22;5117833;28;20501;-57
2021/04/02 09:52:03;;;;;;;10.43;9.40;;;;;;;14.57;51.31;96601.34;5117885;28;20410;-58
2021/04/02 09:54:31;;;;;;;11.83;10.50;;;;;;;14.83;50.53;96603.28;5117913;28;20751;-59
2021/04/02 09:57:04;;;;;;;10.50;9.60;;;;;;;14.89;50.34;96599.66;5123214;27;20490;-60
2021/04/02 09:59:30;;;;;;;10.50;9.50;;;;;;;15.09;49.44;96594.63;5137125;27;20430;-58
2021/04/02 10:01:56;;;;;;;10.07;9.07;;;;;;;15.19;48.61;96606.13;5126245;27;20781;-58
2021/04/02 10:04:22;;;;;;;11.10;10.00;;;;;;;14.59;49.52;96605.38;5117808;28;20174;-58
2021/04/02 10:06:48;;;;;;;11.93;10.87;;;;;;;14.54;50.18;96597.38;5117772;28;20169;-58
2021/04/02 10:09:13;;;;;;;12.90;10.60;;;;;;;14.41;53.24;96609.09;5124109;27;20925;-59
2021/04/02 10:11:49;;;;;;;9.90;9.00;;;;;;;14.94;51.04;96608.47;5134512;27;20162;-59
2021/04/02 10:14:16;;;;;;;10.60;9.60;;;;;;;14.92;48.31;96602.63;5134560;27;20637;-60
2021/04/02 10:16:41;;;;;;;11.00;9.90;;;;;;;15.21;46.91;96595.28;5132640;27;20410;-60
2021/04/02 10:19:07;;;;;;;11.27;9.47;;;;;;;15.38;46.80;96602.06;5125645;27;20504;-59
2021/04/02 10:21:33;;;;;;;10.30;9.40;;;;;;;15.50;45.71;96594.00;5123103;27;20177;-59
2021/04/02 10:23:59;;;;;;;9.80;8.80;;;;;;;15.82;45.29;96588.72;5134328;27;20601;-59
2021/04/02 10:26:25;;;;;;;10.10;9.23;;;;;;;15.75;44.92;96590.78;5134154;27;20414;-58
2021/04/02 10:28:51;;;;;;;9.97;9.07;;;;;;;16.14;44.47;96592.94;5133754;27;20470;-58
2021/04/02 10:31:16;;;;;;;10.93;9.80;;;;;;;15.89;44.74;96591.97;5134146;27;20814;-59
2021/04/02 10:33:41;;;;;;;10.30;9.27;;;;;;;15.83;45.10;96585.84;5133624;27;20176;-57
2021/04/02 10:36:07;;;;;;;9.33;8.53;;;;;;;16.01;43.16;96592.59;5132260;27;20204;-58
2021/04/02 10:38:33;;;;;;;10.13;9.13;;;;;;;16.15;44.01;96591.91;5132749;27;20232;-58
2021/04/02 10:40:59;;;;;;;10.90;9.90;;;;;;;16.19;42.65;96593.00;5126015;27;20442;-58
2021/04/02 10:43:24;;;;;;;10.03;9.13;;;;;;;15.84;45.64;96590.06;5113373;28;20427;-59
2021/04/02 10:45:50;;;;;;;10.10;9.10;;;;;;;15.79;45.74;96594.53;5112933;27;20174;-60
2021/04/02 10:48:15;;;;;;;9.93;9.03;;;;;;;15.98;44.92;96579.88;5112807;28;20199;-60
2021/04/02 10:50:44;;;;;;;9.60;8.87;;;;;;;16.46;44.21;96583.09;5113736;27;20253;-59
2021/04/02 10:53:10;;;;;;;9.37;8.53;;;;;;;16.55;40.25;96583.44;5113477;28;20653;-59
2021/04/02 10:55:36;;;;;;;9.13;8.33;;;;;;;16.62;42.07;96572.59;5114152;27;20411;-59
2021/04/02 10:58:05;;;;;;;11.00;10.00;;;;;;;16.83;41.57;96579.59;5112274;28;21136;-59
2021/04/02 11:00:31;;;;;;;10.50;9.63;;;;;;;16.48;42.34;96574.09;5113063;28;20439;-59
2021/04/02 11:02:56;;;;;;;10.20;9.30;;;;;;;16.48;43.06;96576.75;5113015;28;20411;-59
2021/04/02 11:05:22;;;;;;;9.60;8.80;;;;;;;16.01;42.01;96576.69;5111943;28;21060;-58
2021/04/02 11:07:47;;;;;;;9.90;8.90;;;;;;;15.85;44.84;96575.75;5112579;28;20566;-59
2021/04/02 11:10:13;;;;;;;8.97;8.23;;;;;;;16.34;42.70;96573.75;5116999;27;20192;-60
2021/04/02 11:12:40;;;;;;;8.57;7.77;;;;;;;16.12;41.62;96576.53;5133366;27;20161;-59
2021/04/02 11:15:08;;;;;;;10.07;9.17;;;;;;;16.37;41.93;96575.88;5133367;27;20407;-59
2021/04/02 11:17:33;;;;;;;9.53;8.63;;;;;;;16.47;41.71;96570.66;5131695;27;20468;-59
2021/04/02 11:19:59;;;;;;;9.17;8.40;;;;;;;16.53;42.49;96574.13;5121571;27;20961;-60
2021/04/02 11:22:25;;;;;;;9.83;8.80;;;;;;;16.81;42.87;96571.91;5112057;28;20973;-59
2021/04/02 11:24:52;;;;;;;9.80;8.90;;;;;;;16.88;43.05;96571.66;5116137;27;20169;-59
2021/04/02 11:27:21;;;;;;;9.43;8.63;;;;;;;16.88;40.02;96567.16;5132786;27;20585;-59
2021/04/02 11:29:46;;;;;;;9.00;8.20;;;;;;;16.60;41.04;96569.38;5132278;27;20446;-58
2021/04/02 11:32:12;;;;;;;9.33;8.40;;;;;;;15.91;43.68;96563.34;5112647;27;20867;-58